Terminal Aerodrome Forecast
Issued by NWS

Home | Current Version | Previous Version | Text Only | Print | Product List | Glossary Off
Versions: 1 2 3 4 5 6 7 8 9 10 11 12 13 14 15

781
FTUS43 KABR 212333
TAFATY
TAF
KATY 212333Z 2200/2224 18006KT P6SM SKC
     FM220600 16008KT P6SM SKC WS020/19040KT
     FM221200 17009KT P6SM SKC
     FM221700 18019G29KT P6SM SCT250=

USA.gov is the U.S. government's official web portal to all federal, state and local government web resources and services.